createdAt,value
2023-05-08T00:00:18.417Z,0.30
2023-05-08T00:02:51.140Z,0.20
2023-05-08T00:05:19.285Z,0.20
2023-05-08T00:07:47.515Z,0.30
2023-05-08T00:10:17.478Z,0.20
2023-05-08T00:12:47.799Z,0.20
2023-05-08T00:15:16.826Z,0.23
2023-05-08T00:17:44.937Z,0.20
2023-05-08T00:20:14.152Z,0.27
2023-05-08T00:22:42.831Z,0.20
2023-05-08T00:25:12.232Z,0.30
2023-05-08T00:27:40.708Z,0.20
2023-05-08T00:30:11.957Z,0.20
2023-05-08T00:32:40.710Z,0.30
2023-05-08T00:35:10.042Z,0.20
2023-05-08T00:37:40.902Z,0.20
2023-05-08T00:40:10.733Z,0.30
2023-05-08T00:42:39.782Z,0.20
2023-05-08T00:45:08.927Z,0.20
2023-05-08T00:47:39.995Z,0.20
2023-05-08T00:50:09.054Z,0.20
2023-05-08T00:52:36.901Z,0.20
2023-05-08T00:55:06.362Z,0.20
2023-05-08T00:57:35.776Z,0.20
2023-05-08T01:00:05.781Z,0.20
2023-05-08T01:02:34.010Z,0.23
2023-05-08T01:05:04.492Z,0.30
2023-05-08T01:07:33.342Z,0.30
2023-05-08T01:10:01.301Z,0.30
2023-05-08T01:12:41.333Z,0.30
2023-05-08T01:15:16.923Z,0.30
2023-05-08T01:18:08.789Z,0.30
2023-05-08T01:20:46.211Z,0.40
2023-05-08T01:23:45.243Z,0.20
2023-05-08T01:26:43.862Z,0.20
2023-05-08T01:29:45.167Z,0.20
2023-05-08T01:32:18.439Z,0.20
2023-05-08T01:34:54.540Z,0.20
2023-05-08T01:37:31.110Z,0.20
2023-05-08T01:40:11.504Z,0.20
2023-05-08T01:42:55.074Z,0.20
2023-05-08T01:45:28.336Z,0.20
2023-05-08T01:48:05.163Z,0.20
2023-05-08T01:50:40.050Z,0.20
2023-05-08T01:53:13.821Z,0.20
2023-05-08T01:55:44.931Z,0.20
2023-05-08T01:58:14.728Z,0.20
2023-05-08T02:00:44.870Z,0.20
2023-05-08T02:03:16.939Z,0.20
2023-05-08T02:05:46.145Z,0.23
2023-05-08T02:08:16.114Z,0.20
2023-05-08T02:10:46.208Z,0.20
2023-05-08T02:13:19.155Z,0.23
2023-05-08T02:15:49.481Z,0.20
2023-05-08T02:18:21.272Z,0.20
2023-05-08T02:20:52.070Z,0.20
2023-05-08T02:23:21.771Z,0.20
2023-05-08T02:25:52.107Z,0.20
2023-05-08T02:28:21.569Z,0.20
2023-05-08T02:30:51.047Z,0.20
2023-05-08T02:33:21.281Z,0.30
2023-05-08T02:35:51.639Z,0.20
2023-05-08T02:38:22.649Z,0.20
2023-05-08T02:40:54.697Z,0.20
2023-05-08T02:43:23.997Z,0.20
2023-05-08T02:46:07.629Z,0.20
2023-05-08T02:48:40.751Z,0.30
2023-05-08T02:51:19.684Z,0.20
2023-05-08T02:53:52.567Z,0.20
2023-05-08T02:56:32.201Z,0.20
2023-05-08T02:59:11.322Z,0.20
2023-05-08T03:01:45.575Z,0.20
2023-05-08T03:04:25.204Z,0.30
2023-05-08T03:06:56.476Z,0.20
2023-05-08T03:09:27.984Z,0.20
2023-05-08T03:12:04.851Z,0.20
2023-05-08T03:14:41.615Z,0.20
2023-05-08T03:17:17.381Z,0.20
2023-05-08T03:19:56.237Z,0.20
2023-05-08T03:22:26.724Z,0.20
2023-05-08T03:25:14.090Z,0.20
2023-05-08T03:27:43.047Z,0.20
2023-05-08T03:30:55.252Z,0.20
2023-05-08T03:33:25.429Z,0.20
2023-05-08T03:35:57.520Z,0.20
2023-05-08T03:38:26.033Z,0.20
2023-05-08T03:40:54.637Z,0.20
2023-05-08T03:43:30.528Z,0.30
2023-05-08T03:45:59.224Z,0.20
2023-05-08T03:48:28.584Z,0.20
2023-05-08T03:50:59.994Z,0.20
2023-05-08T03:53:28.730Z,0.20
2023-05-08T03:55:59.014Z,0.20
2023-05-08T03:58:33.850Z,0.20
2023-05-08T04:01:08.913Z,0.20
2023-05-08T04:03:57.100Z,0.20
2023-05-08T04:06:42.124Z,0.20
2023-05-08T04:09:28.132Z,0.20
2023-05-08T04:12:03.407Z,0.20
2023-05-08T04:14:36.552Z,0.20
2023-05-08T04:17:10.997Z,0.20
2023-05-08T04:19:44.434Z,0.20
2023-05-08T04:22:14.179Z,0.20
2023-05-08T04:24:46.635Z,0.20
2023-05-08T04:27:15.499Z,0.23
2023-05-08T04:29:44.234Z,0.20
2023-05-08T04:32:13.503Z,0.20
2023-05-08T04:34:42.193Z,0.20
2023-05-08T04:37:10.257Z,0.30
2023-05-08T04:39:40.945Z,0.20
2023-05-08T04:42:09.916Z,0.20
2023-05-08T04:44:39.218Z,0.20
2023-05-08T04:47:08.136Z,0.20
2023-05-08T04:49:37.514Z,0.20
2023-05-08T04:52:06.519Z,0.20
2023-05-08T04:54:34.972Z,0.20
2023-05-08T04:57:04.466Z,0.27
2023-05-08T04:59:32.973Z,0.20
2023-05-08T05:02:06.051Z,0.23
2023-05-08T05:04:34.438Z,0.20
2023-05-08T05:07:03.596Z,0.20
2023-05-08T05:09:34.924Z,0.20
2023-05-08T05:12:04.229Z,0.20
2023-05-08T05:14:33.439Z,0.20
2023-05-08T05:17:01.377Z,0.20
2023-05-08T05:19:29.662Z,0.20
2023-05-08T05:21:58.188Z,0.20
2023-05-08T05:24:28.094Z,0.20
2023-05-08T05:26:55.964Z,0.20
2023-05-08T05:29:25.616Z,0.20
2023-05-08T05:31:53.687Z,0.23
2023-05-08T05:34:22.222Z,0.20
2023-05-08T05:36:50.143Z,0.13
2023-05-08T05:39:18.250Z,0.20
2023-05-08T05:41:48.841Z,0.20
2023-05-08T05:44:16.924Z,0.20
2023-05-08T05:46:46.438Z,0.20
2023-05-08T05:49:14.686Z,0.20
2023-05-08T05:51:42.991Z,0.20
2023-05-08T05:54:15.335Z,0.30
2023-05-08T05:56:43.479Z,0.20
2023-05-08T05:59:11.531Z,0.20
2023-05-08T06:01:39.660Z,0.27
2023-05-08T06:04:11.597Z,0.20
2023-05-08T06:06:39.438Z,0.30
2023-05-08T06:09:10.439Z,0.20
2023-05-08T06:11:38.729Z,0.20
2023-05-08T06:14:06.828Z,0.20
2023-05-08T06:16:35.641Z,0.20
2023-05-08T06:19:03.690Z,0.20
2023-05-08T06:21:34.555Z,0.20
2023-05-08T06:24:02.536Z,0.20
2023-05-08T06:26:30.807Z,0.20
2023-05-08T06:28:58.844Z,0.20
2023-05-08T06:31:27.357Z,0.20
2023-05-08T06:33:56.437Z,0.20
2023-05-08T06:36:27.084Z,0.20
2023-05-08T06:38:59.006Z,0.20
2023-05-08T06:41:27.602Z,0.20
2023-05-08T06:43:55.607Z,0.20
2023-05-08T06:46:23.528Z,0.20
2023-05-08T06:48:51.534Z,0.20
2023-05-08T06:51:23.293Z,0.20
2023-05-08T06:53:51.415Z,0.20
2023-05-08T06:56:21.172Z,0.20
2023-05-08T06:59:04.545Z,0.20
2023-05-08T07:01:38.385Z,0.20
2023-05-08T07:04:06.755Z,0.20
2023-05-08T07:06:36.906Z,0.20
2023-05-08T07:09:05.292Z,0.20
2023-05-08T07:11:34.732Z,0.20
2023-05-08T07:14:05.115Z,0.20
2023-05-08T07:16:34.622Z,0.20
2023-05-08T07:19:03.262Z,0.20
2023-05-08T07:21:31.899Z,0.20
2023-05-08T07:23:59.818Z,0.20
2023-05-08T07:26:28.455Z,0.20
2023-05-08T07:28:57.690Z,0.20
2023-05-08T07:31:29.861Z,0.20
2023-05-08T07:33:58.853Z,0.20
2023-05-08T07:36:26.605Z,0.20
2023-05-08T07:38:54.611Z,0.20
2023-05-08T07:41:22.562Z,0.20
2023-05-08T07:43:50.727Z,0.20
2023-05-08T07:46:20.885Z,0.20
2023-05-08T07:48:48.924Z,0.20
2023-05-08T07:51:17.200Z,0.20
2023-05-08T07:53:45.330Z,0.20
2023-05-08T07:56:13.364Z,0.20
2023-05-08T07:58:54.704Z,0.20
2023-05-08T08:01:35.520Z,0.27
2023-05-08T08:04:23.610Z,0.20
2023-05-08T08:07:03.166Z,0.20
2023-05-08T08:09:31.273Z,0.20
2023-05-08T08:12:53.767Z,0.20
2023-05-08T08:15:39.844Z,0.20
2023-05-08T08:18:31.178Z,0.20
2023-05-08T08:20:59.050Z,0.20
2023-05-08T08:23:27.389Z,0.20
2023-05-08T08:25:55.194Z,0.20
2023-05-08T08:28:23.378Z,0.17
2023-05-08T08:30:52.346Z,0.20
2023-05-08T08:33:20.586Z,0.13
2023-05-08T08:35:51.211Z,0.13
2023-05-08T08:38:19.079Z,0.10
2023-05-08T08:40:46.978Z,0.10
2023-05-08T08:43:14.846Z,0.10
2023-05-08T08:45:42.885Z,0.10
2023-05-08T08:48:12.625Z,0.10
2023-05-08T08:50:45.004Z,0.10
2023-05-08T08:53:22.483Z,0.10
2023-05-08T08:55:59.524Z,0.10
2023-05-08T08:58:36.549Z,0.10
2023-05-08T09:01:08.882Z,0.10
2023-05-08T09:03:37.338Z,0.13
2023-05-08T09:06:06.273Z,0.10
2023-05-08T09:08:36.306Z,0.10
2023-05-08T09:11:05.013Z,0.10
2023-05-08T09:13:33.455Z,0.10
2023-05-08T09:16:02.031Z,0.10
2023-05-08T09:18:33.782Z,0.10
2023-05-08T09:21:04.719Z,0.10
2023-05-08T09:23:43.755Z,0.10
2023-05-08T09:26:42.265Z,0.10
2023-05-08T09:29:17.923Z,0.10
2023-05-08T09:31:47.493Z,0.10
2023-05-08T09:34:31.910Z,0.10
2023-05-08T09:37:14.187Z,0.10
2023-05-08T09:42:46.161Z,0.10
2023-05-08T09:45:32.658Z,0.10
2023-05-08T09:48:09.168Z,0.10
2023-05-08T09:53:07.449Z,0.00
2023-05-08T09:55:52.063Z,0.10
2023-05-08T09:58:23.839Z,0.00
2023-05-08T10:00:52.483Z,0.00
2023-05-08T10:03:20.878Z,0.10
2023-05-08T10:05:48.959Z,0.00
2023-05-08T10:08:21.581Z,0.00
2023-05-08T10:10:51.211Z,0.00
2023-05-08T10:13:19.271Z,0.00
2023-05-08T10:15:55.702Z,0.00
2023-05-08T10:18:30.264Z,0.00
2023-05-08T10:21:02.464Z,0.00
2023-05-08T10:23:30.713Z,0.00
2023-05-08T10:26:08.189Z,0.00
2023-05-08T10:28:43.742Z,0.00
2023-05-08T10:31:19.175Z,0.00
2023-05-08T10:33:51.546Z,0.00
2023-05-08T10:36:21.645Z,0.07
2023-05-08T10:38:51.452Z,0.10
2023-05-08T10:41:21.524Z,0.10
2023-05-08T10:43:51.209Z,0.00
2023-05-08T10:46:23.848Z,0.00
2023-05-08T10:49:00.300Z,0.00
2023-05-08T10:51:39.443Z,0.00
2023-05-08T10:54:14.998Z,0.00
2023-05-08T10:56:45.276Z,0.00
2023-05-08T10:59:20.270Z,0.00
2023-05-08T11:01:52.786Z,0.00
2023-05-08T11:04:24.936Z,0.00
2023-05-08T11:06:54.201Z,0.00
2023-05-08T11:09:23.798Z,0.00
2023-05-08T11:12:25.119Z,0.00
2023-05-08T11:15:01.528Z,0.00
2023-05-08T11:17:31.920Z,0.00
2023-05-08T11:20:01.663Z,0.00
2023-05-08T11:22:32.648Z,0.00
2023-05-08T11:25:08.685Z,0.00
2023-05-08T11:27:40.504Z,0.00
2023-05-08T11:30:36.361Z,0.08
2023-05-08T11:33:18.449Z,0.00
2023-05-08T11:35:50.047Z,0.00
2023-05-08T11:38:20.245Z,0.00
2023-05-08T11:40:58.085Z,0.00
2023-05-08T11:43:53.833Z,0.00
2023-05-08T11:46:22.868Z,0.00
2023-05-08T11:49:00.223Z,0.08
2023-05-08T11:51:32.520Z,0.00
2023-05-08T11:54:01.181Z,0.00
2023-05-08T11:56:29.784Z,0.00
2023-05-08T11:59:11.060Z,0.00
2023-05-08T12:01:46.416Z,0.00
2023-05-08T12:04:21.912Z,0.00
2023-05-08T12:06:53.826Z,0.03
2023-05-08T12:09:21.922Z,0.00
2023-05-08T12:11:58.524Z,0.00
2023-05-08T12:14:27.893Z,0.00
2023-05-08T12:16:55.885Z,0.00
2023-05-08T12:19:26.146Z,0.00
2023-05-08T12:21:57.768Z,0.00
2023-05-08T12:24:26.815Z,0.00
2023-05-08T12:26:56.264Z,0.00
2023-05-08T12:29:27.020Z,0.00
2023-05-08T12:31:57.655Z,0.00
2023-05-08T12:34:25.691Z,0.00
2023-05-08T12:37:03.441Z,0.00
2023-05-08T12:39:36.801Z,0.00
2023-05-08T12:42:04.922Z,0.00
2023-05-08T12:44:32.825Z,0.00
2023-05-08T12:47:03.221Z,0.00
2023-05-08T12:49:32.714Z,0.00
2023-05-08T12:52:07.677Z,0.00
2023-05-08T12:54:54.638Z,0.00
2023-05-08T12:57:23.854Z,0.00
2023-05-08T13:00:07.820Z,0.00
2023-05-08T13:03:04.480Z,0.00
2023-05-08T13:05:51.477Z,0.00
2023-05-08T13:08:19.414Z,0.00
2023-05-08T13:14:36.470Z,0.00
2023-05-08T13:17:07.381Z,0.00
2023-05-08T13:19:41.091Z,0.00
2023-05-08T13:22:09.139Z,0.00
2023-05-08T13:24:38.144Z,0.03
2023-05-08T13:27:07.690Z,0.00
2023-05-08T13:29:35.650Z,0.00
2023-05-08T13:32:05.818Z,0.00
2023-05-08T13:34:36.052Z,0.00
2023-05-08T13:37:08.767Z,0.10
2023-05-08T13:39:37.873Z,0.00
2023-05-08T13:42:05.947Z,0.00
2023-05-08T13:44:33.907Z,0.00
2023-05-08T13:47:02.294Z,0.00
2023-05-08T13:49:32.610Z,0.00
2023-05-08T13:52:01.113Z,0.00
2023-05-08T13:54:30.811Z,0.00
2023-05-08T13:56:58.948Z,0.00
2023-05-08T13:59:27.032Z,0.00
2023-05-08T14:01:55.213Z,0.00
2023-05-08T14:04:23.282Z,0.00
2023-05-08T14:06:52.909Z,0.00
2023-05-08T14:09:21.595Z,0.00
2023-05-08T14:11:51.009Z,0.00
2023-05-08T14:14:19.370Z,0.00
2023-05-08T14:16:47.466Z,0.05
2023-05-08T14:19:18.392Z,0.00
2023-05-08T14:21:46.692Z,0.10
2023-05-08T14:24:14.771Z,0.00
2023-05-08T14:26:44.838Z,0.00
2023-05-08T14:29:15.011Z,0.00
2023-05-08T14:31:47.253Z,0.00
2023-05-08T14:34:16.123Z,0.10
2023-05-08T14:36:44.056Z,0.10
2023-05-08T14:39:12.075Z,0.10
2023-05-08T14:41:40.086Z,0.10
2023-05-08T14:44:07.992Z,0.00
2023-05-08T14:46:43.622Z,0.00
2023-05-08T14:49:12.464Z,0.10
2023-05-08T14:51:44.225Z,0.10
2023-05-08T14:54:12.263Z,0.10
2023-05-08T14:59:28.125Z,0.10
2023-05-08T15:01:58.647Z,0.10
2023-05-08T15:04:26.549Z,0.10
2023-05-08T15:06:54.401Z,0.10
2023-05-08T15:09:22.298Z,0.10
2023-05-08T15:11:50.431Z,0.10
2023-05-08T15:14:18.505Z,0.10
2023-05-08T15:16:46.668Z,0.10
2023-05-08T15:19:17.004Z,0.10
2023-05-08T15:21:44.877Z,0.20
2023-05-08T15:24:12.823Z,0.20
2023-05-08T15:26:42.933Z,0.10
2023-05-08T15:29:10.904Z,0.10
2023-05-08T15:31:39.133Z,0.17
2023-05-08T15:34:07.459Z,0.20
2023-05-08T15:36:37.174Z,0.10
2023-05-08T15:39:05.232Z,0.10
2023-05-08T15:41:34.223Z,0.20
2023-05-08T15:44:02.288Z,0.20
2023-05-08T15:46:30.097Z,0.20
2023-05-08T15:49:02.671Z,0.20
2023-05-08T15:51:31.876Z,0.17
2023-05-08T15:54:01.700Z,0.20
2023-05-08T15:56:31.015Z,0.20
2023-05-08T15:58:58.844Z,0.20
2023-05-08T16:01:26.800Z,0.20
2023-05-08T16:03:54.903Z,0.20
2023-05-08T16:06:22.867Z,0.10
2023-05-08T16:08:52.089Z,0.20
2023-05-08T16:11:24.200Z,0.20
2023-05-08T16:13:52.842Z,0.20
2023-05-08T16:16:23.289Z,0.20
2023-05-08T16:18:51.235Z,0.20
2023-05-08T16:21:19.053Z,0.20
2023-05-08T16:23:47.050Z,0.20
2023-05-08T16:26:16.516Z,0.20
2023-05-08T16:28:45.905Z,0.20
2023-05-08T16:31:14.040Z,0.20
2023-05-08T16:33:41.941Z,0.20
2023-05-08T16:36:11.229Z,0.20
2023-05-08T16:38:40.082Z,0.20
2023-05-08T16:41:12.644Z,0.20
2023-05-08T16:43:41.601Z,0.10
2023-05-08T16:46:13.450Z,0.20
2023-05-08T16:48:42.266Z,0.17
2023-05-08T16:51:10.327Z,0.10
2023-05-08T16:53:38.948Z,0.20
2023-05-08T16:56:08.086Z,0.20
2023-05-08T16:58:36.036Z,0.20
2023-05-08T17:01:04.500Z,0.20
2023-05-08T17:03:34.650Z,0.20
2023-05-08T17:06:07.708Z,0.20
2023-05-08T17:08:36.552Z,0.20
2023-05-08T17:11:08.122Z,0.20
2023-05-08T17:13:43.802Z,0.10
2023-05-08T17:16:14.141Z,0.20
2023-05-08T17:18:44.026Z,0.20
2023-05-08T17:21:13.645Z,0.20
2023-05-08T17:23:41.904Z,0.20
2023-05-08T17:26:14.127Z,0.10
2023-05-08T17:28:47.204Z,0.20
2023-05-08T17:31:34.579Z,0.10
2023-05-08T17:34:11.254Z,0.10
2023-05-08T17:36:58.948Z,0.20
2023-05-08T17:39:34.872Z,0.20
2023-05-08T17:42:09.497Z,0.20
2023-05-08T17:44:38.530Z,0.20
2023-05-08T17:47:17.657Z,0.20
2023-05-08T17:49:49.582Z,0.20
2023-05-08T17:52:19.398Z,0.20
2023-05-08T17:54:59.363Z,0.20
2023-05-08T17:57:30.215Z,0.20
2023-05-08T17:59:58.947Z,0.13
2023-05-08T18:02:40.463Z,0.17
2023-05-08T18:05:46.387Z,0.30
2023-05-08T18:08:25.533Z,0.20
2023-05-08T18:10:53.507Z,0.20
2023-05-08T18:13:31.928Z,0.20
2023-05-08T18:16:19.299Z,0.20
2023-05-08T18:18:53.272Z,0.10
2023-05-08T18:21:22.181Z,0.20
2023-05-08T18:23:51.790Z,0.20
2023-05-08T18:26:19.753Z,0.20
2023-05-08T18:28:48.115Z,0.20
2023-05-08T18:31:19.027Z,0.20
2023-05-08T18:33:46.922Z,0.10
2023-05-08T18:36:16.103Z,0.10
2023-05-08T18:38:43.903Z,0.10
2023-05-08T18:41:16.367Z,0.20
2023-05-08T18:43:44.794Z,0.20
2023-05-08T18:46:13.914Z,0.10
2023-05-08T18:48:42.571Z,0.20
2023-05-08T18:51:10.720Z,0.20
2023-05-08T18:53:40.812Z,0.20
2023-05-08T18:56:09.151Z,0.20
2023-05-08T18:58:39.988Z,0.17
2023-05-08T19:01:09.008Z,0.20
2023-05-08T19:03:37.066Z,0.20
2023-05-08T19:06:05.794Z,0.10
2023-05-08T19:08:33.734Z,0.20
2023-05-08T19:11:01.896Z,0.20
2023-05-08T19:13:29.963Z,0.20
2023-05-08T19:16:07.551Z,0.20
2023-05-08T19:18:35.471Z,0.20
2023-05-08T19:21:03.541Z,0.20
2023-05-08T19:23:31.620Z,0.20
2023-05-08T19:25:59.672Z,0.20
2023-05-08T19:28:27.842Z,0.20
2023-05-08T19:30:55.875Z,0.10
2023-05-08T19:33:25.300Z,0.20
2023-05-08T19:35:53.240Z,0.13
2023-05-08T19:38:21.214Z,0.20
2023-05-08T19:40:57.310Z,0.20
2023-05-08T19:43:28.735Z,0.20
2023-05-08T19:45:57.348Z,0.13
2023-05-08T19:48:30.322Z,0.20
2023-05-08T19:50:58.394Z,0.20
2023-05-08T19:53:26.452Z,0.20
2023-05-08T19:55:54.237Z,0.10
2023-05-08T19:58:23.496Z,0.20
2023-05-08T20:00:52.051Z,0.10
2023-05-08T20:03:20.918Z,0.10
2023-05-08T20:05:51.802Z,0.10
2023-05-08T20:08:22.499Z,0.10
2023-05-08T20:10:51.591Z,0.10
2023-05-08T20:13:19.721Z,0.20
2023-05-08T20:15:52.323Z,0.10
2023-05-08T20:18:22.463Z,0.20
2023-05-08T20:20:54.379Z,0.20
2023-05-08T20:23:22.381Z,0.20
2023-05-08T20:25:50.561Z,0.10
2023-05-08T20:28:22.277Z,0.20
2023-05-08T20:30:51.097Z,0.20
2023-05-08T20:33:20.690Z,0.20
2023-05-08T20:35:53.094Z,0.17
2023-05-08T20:38:21.873Z,0.20
2023-05-08T20:40:54.903Z,0.20
2023-05-08T20:43:29.079Z,0.20
2023-05-08T20:46:02.010Z,0.10
2023-05-08T20:48:30.708Z,0.20
2023-05-08T20:51:03.808Z,0.20
2023-05-08T20:53:33.485Z,0.17
2023-05-08T20:56:02.065Z,0.20
2023-05-08T20:58:30.904Z,0.20
2023-05-08T21:00:59.423Z,0.20
2023-05-08T21:03:27.647Z,0.10
2023-05-08T21:05:56.016Z,0.20
2023-05-08T21:08:26.415Z,0.20
2023-05-08T21:10:54.390Z,0.10
2023-05-08T21:13:25.745Z,0.20
2023-05-08T21:15:53.772Z,0.17
2023-05-08T21:18:21.921Z,0.13
2023-05-08T21:20:50.735Z,0.20
2023-05-08T21:23:26.908Z,0.10
2023-05-08T21:25:55.156Z,0.10
2023-05-08T21:28:23.477Z,0.10
2023-05-08T21:30:51.518Z,0.10
2023-05-08T21:33:19.493Z,0.10
2023-05-08T21:35:48.610Z,0.20
2023-05-08T21:38:16.448Z,0.10
2023-05-08T21:40:46.182Z,0.20
2023-05-08T21:43:14.136Z,0.20
2023-05-08T21:45:42.048Z,0.20
2023-05-08T21:48:11.480Z,0.20
2023-05-08T21:50:39.537Z,0.20
2023-05-08T21:53:07.756Z,0.20
2023-05-08T21:55:35.793Z,0.20
2023-05-08T21:58:07.262Z,0.10
2023-05-08T22:00:35.342Z,0.20
2023-05-08T22:03:03.667Z,0.10
2023-05-08T22:05:31.865Z,0.10
2023-05-08T22:07:59.978Z,0.20
2023-05-08T22:10:31.222Z,0.20
2023-05-08T22:13:00.662Z,0.20
2023-05-08T22:15:35.325Z,0.10
2023-05-08T22:18:05.135Z,0.20
2023-05-08T22:20:33.244Z,0.13
2023-05-08T22:23:02.295Z,0.20
2023-05-08T22:25:30.851Z,0.20
2023-05-08T22:27:58.907Z,0.20
2023-05-08T22:30:27.140Z,0.10
2023-05-08T22:32:59.458Z,0.17
2023-05-08T22:35:28.369Z,0.20
2023-05-08T22:37:58.378Z,0.10
2023-05-08T22:40:27.712Z,0.20
2023-05-08T22:43:02.091Z,0.20
2023-05-08T22:45:31.602Z,0.10
2023-05-08T22:48:02.019Z,0.20
2023-05-08T22:50:30.098Z,0.20
2023-05-08T22:53:01.174Z,0.20
2023-05-08T22:55:31.408Z,0.20
2023-05-08T22:58:00.353Z,0.20
2023-05-08T23:00:30.357Z,0.20
2023-05-08T23:03:09.198Z,0.20
2023-05-08T23:05:40.061Z,0.20
2023-05-08T23:08:15.191Z,0.10
2023-05-08T23:10:43.452Z,0.20
2023-05-08T23:13:15.712Z,0.20
2023-05-08T23:15:55.926Z,0.20
2023-05-08T23:18:35.186Z,0.20
2023-05-08T23:21:32.516Z,0.20
2023-05-08T23:24:02.838Z,0.20
2023-05-08T23:26:59.525Z,0.20
2023-05-08T23:29:28.503Z,0.20
2023-05-08T23:31:56.701Z,0.20
2023-05-08T23:34:27.183Z,0.20
2023-05-08T23:36:55.283Z,0.20
2023-05-08T23:39:23.318Z,0.20
2023-05-08T23:41:53.138Z,0.20
2023-05-08T23:44:20.992Z,0.20
2023-05-08T23:46:51.102Z,0.20
2023-05-08T23:49:19.322Z,0.20
2023-05-08T23:51:49.122Z,0.20
2023-05-08T23:54:17.396Z,0.20
2023-05-08T23:56:45.318Z,0.20
2023-05-08T23:59:13.357Z,0.20
